sensor_id;sensor_type;location;lat;lon;timestamp;P1;durP1;ratioP1;P2;durP2;ratioP2
67776;SDS011;54576;52.020;5.536;2023-09-07T00:00:12;8.45;;;2.97;;
67776;SDS011;54576;52.020;5.536;2023-09-07T00:02:39;5.97;;;3.28;;
67776;SDS011;54576;52.020;5.536;2023-09-07T00:05:05;4.22;;;3.28;;
67776;SDS011;54576;52.020;5.536;2023-09-07T00:07:32;9.98;;;3.70;;
67776;SDS011;54576;52.020;5.536;2023-09-07T00:10:01;11.50;;;3.53;;
67776;SDS011;54576;52.020;5.536;2023-09-07T00:12:28;5.38;;;3.78;;
67776;SDS011;54576;52.020;5.536;2023-09-07T00:14:54;5.70;;;3.72;;
67776;SDS011;54576;52.020;5.536;2023-09-07T00:17:20;5.68;;;3.85;;
67776;SDS011;54576;52.020;5.536;2023-09-07T00:19:46;4.45;;;4.03;;
67776;SDS011;54576;52.020;5.536;2023-09-07T00:22:16;5.50;;;3.50;;
67776;SDS011;54576;52.020;5.536;2023-09-07T00:24:42;5.45;;;3.03;;
67776;SDS011;54576;52.020;5.536;2023-09-07T00:27:08;10.98;;;3.53;;
67776;SDS011;54576;52.020;5.536;2023-09-07T00:29:39;4.38;;;3.58;;
67776;SDS011;54576;52.020;5.536;2023-09-07T00:32:06;4.03;;;3.28;;
67776;SDS011;54576;52.020;5.536;2023-09-07T00:34:32;3.92;;;3.50;;
67776;SDS011;54576;52.020;5.536;2023-09-07T00:36:58;4.18;;;3.40;;
67776;SDS011;54576;52.020;5.536;2023-09-07T00:39:25;5.13;;;3.92;;
67776;SDS011;54576;52.020;5.536;2023-09-07T00:41:51;4.75;;;3.40;;
67776;SDS011;54576;52.020;5.536;2023-09-07T00:44:16;5.88;;;3.35;;
67776;SDS011;54576;52.020;5.536;2023-09-07T00:46:42;4.93;;;3.47;;
67776;SDS011;54576;52.020;5.536;2023-09-07T00:49:09;8.95;;;3.38;;
67776;SDS011;54576;52.020;5.536;2023-09-07T00:51:36;3.42;;;3.13;;
67776;SDS011;54576;52.020;5.536;2023-09-07T00:54:02;4.00;;;3.45;;
67776;SDS011;54576;52.020;5.536;2023-09-07T00:56:28;6.32;;;3.10;;
67776;SDS011;54576;52.020;5.536;2023-09-07T00:58:54;3.65;;;3.28;;
67776;SDS011;54576;52.020;5.536;2023-09-07T01:01:21;6.90;;;3.22;;
67776;SDS011;54576;52.020;5.536;2023-09-07T01:03:48;8.10;;;3.28;;
67776;SDS011;54576;52.020;5.536;2023-09-07T01:06:36;4.03;;;3.33;;
67776;SDS011;54576;52.020;5.536;2023-09-07T01:09:06;3.33;;;3.00;;
67776;SDS011;54576;52.020;5.536;2023-09-07T01:11:38;3.88;;;3.40;;
67776;SDS011;54576;52.020;5.536;2023-09-07T01:14:04;4.65;;;3.38;;
67776;SDS011;54576;52.020;5.536;2023-09-07T01:16:30;4.07;;;3.20;;
67776;SDS011;54576;52.020;5.536;2023-09-07T01:21:25;5.50;;;3.05;;
67776;SDS011;54576;52.020;5.536;2023-09-07T01:23:51;3.97;;;3.33;;
67776;SDS011;54576;52.020;5.536;2023-09-07T01:26:17;3.00;;;2.80;;
67776;SDS011;54576;52.020;5.536;2023-09-07T01:28:43;4.75;;;2.90;;
67776;SDS011;54576;52.020;5.536;2023-09-07T01:31:09;3.42;;;2.92;;
67776;SDS011;54576;52.020;5.536;2023-09-07T01:33:34;5.20;;;3.70;;
67776;SDS011;54576;52.020;5.536;2023-09-07T01:36:00;3.47;;;3.13;;
67776;SDS011;54576;52.020;5.536;2023-09-07T01:38:26;6.28;;;3.10;;
67776;SDS011;54576;52.020;5.536;2023-09-07T01:40:51;7.57;;;3.22;;
67776;SDS011;54576;52.020;5.536;2023-09-07T01:43:17;7.05;;;3.22;;
67776;SDS011;54576;52.020;5.536;2023-09-07T01:45:42;4.15;;;3.00;;
67776;SDS011;54576;52.020;5.536;2023-09-07T01:48:08;2.95;;;2.75;;
67776;SDS011;54576;52.020;5.536;2023-09-07T01:50:36;6.80;;;2.90;;
67776;SDS011;54576;52.020;5.536;2023-09-07T01:53:02;5.13;;;3.08;;
67776;SDS011;54576;52.020;5.536;2023-09-07T01:55:31;3.05;;;2.75;;
67776;SDS011;54576;52.020;5.536;2023-09-07T01:57:57;5.90;;;2.50;;
67776;SDS011;54576;52.020;5.536;2023-09-07T02:00:22;2.95;;;2.75;;
67776;SDS011;54576;52.020;5.536;2023-09-07T02:02:48;6.78;;;3.15;;
67776;SDS011;54576;52.020;5.536;2023-09-07T02:05:13;8.18;;;2.97;;
67776;SDS011;54576;52.020;5.536;2023-09-07T02:07:39;4.22;;;2.67;;
67776;SDS011;54576;52.020;5.536;2023-09-07T02:10:05;4.03;;;2.90;;
67776;SDS011;54576;52.020;5.536;2023-09-07T02:12:31;3.95;;;2.92;;
67776;SDS011;54576;52.020;5.536;2023-09-07T02:14:58;5.38;;;3.22;;
67776;SDS011;54576;52.020;5.536;2023-09-07T02:17:26;4.88;;;3.10;;
67776;SDS011;54576;52.020;5.536;2023-09-07T02:19:52;4.43;;;2.92;;
67776;SDS011;54576;52.020;5.536;2023-09-07T02:22:17;10.15;;;3.10;;
67776;SDS011;54576;52.020;5.536;2023-09-07T02:24:43;6.35;;;2.92;;
67776;SDS011;54576;52.020;5.536;2023-09-07T02:27:08;4.70;;;3.20;;
67776;SDS011;54576;52.020;5.536;2023-09-07T02:29:34;8.63;;;3.15;;
67776;SDS011;54576;52.020;5.536;2023-09-07T02:31:59;10.15;;;3.45;;
67776;SDS011;54576;52.020;5.536;2023-09-07T02:34:25;6.43;;;3.30;;
67776;SDS011;54576;52.020;5.536;2023-09-07T02:36:51;3.60;;;3.20;;
67776;SDS011;54576;52.020;5.536;2023-09-07T02:39:16;7.15;;;3.58;;
67776;SDS011;54576;52.020;5.536;2023-09-07T02:41:42;4.82;;;3.75;;
67776;SDS011;54576;52.020;5.536;2023-09-07T02:44:08;3.97;;;3.53;;
67776;SDS011;54576;52.020;5.536;2023-09-07T02:46:33;8.55;;;3.67;;
67776;SDS011;54576;52.020;5.536;2023-09-07T02:48:59;5.43;;;4.10;;
67776;SDS011;54576;52.020;5.536;2023-09-07T02:51:24;7.03;;;4.00;;
67776;SDS011;54576;52.020;5.536;2023-09-07T02:53:50;8.80;;;4.20;;
67776;SDS011;54576;52.020;5.536;2023-09-07T02:56:16;4.97;;;3.95;;
67776;SDS011;54576;52.020;5.536;2023-09-07T02:58:42;4.88;;;4.10;;
67776;SDS011;54576;52.020;5.536;2023-09-07T03:01:08;6.15;;;4.28;;
67776;SDS011;54576;52.020;5.536;2023-09-07T03:03:34;4.32;;;3.92;;
67776;SDS011;54576;52.020;5.536;2023-09-07T03:06:10;7.72;;;3.67;;
67776;SDS011;54576;52.020;5.536;2023-09-07T03:08:36;8.88;;;3.55;;
67776;SDS011;54576;52.020;5.536;2023-09-07T03:11:03;8.63;;;3.55;;
67776;SDS011;54576;52.020;5.536;2023-09-07T03:13:29;4.78;;;3.60;;
67776;SDS011;54576;52.020;5.536;2023-09-07T03:15:55;3.85;;;3.45;;
67776;SDS011;54576;52.020;5.536;2023-09-07T03:18:21;9.18;;;4.13;;
67776;SDS011;54576;52.020;5.536;2023-09-07T03:20:47;4.93;;;3.50;;
67776;SDS011;54576;52.020;5.536;2023-09-07T03:23:13;4.47;;;3.30;;
67776;SDS011;54576;52.020;5.536;2023-09-07T03:25:38;3.15;;;2.95;;
67776;SDS011;54576;52.020;5.536;2023-09-07T03:28:04;6.97;;;3.30;;
67776;SDS011;54576;52.020;5.536;2023-09-07T03:30:30;8.82;;;3.53;;
67776;SDS011;54576;52.020;5.536;2023-09-07T03:32:56;5.35;;;3.45;;
67776;SDS011;54576;52.020;5.536;2023-09-07T03:35:21;6.80;;;3.38;;
67776;SDS011;54576;52.020;5.536;2023-09-07T03:37:47;6.45;;;3.53;;
67776;SDS011;54576;52.020;5.536;2023-09-07T03:40:12;5.18;;;3.65;;
67776;SDS011;54576;52.020;5.536;2023-09-07T03:42:38;4.40;;;3.47;;
67776;SDS011;54576;52.020;5.536;2023-09-07T03:45:04;4.00;;;3.70;;
67776;SDS011;54576;52.020;5.536;2023-09-07T03:47:30;4.22;;;3.88;;
67776;SDS011;54576;52.020;5.536;2023-09-07T03:49:56;6.13;;;3.22;;
67776;SDS011;54576;52.020;5.536;2023-09-07T03:52:22;4.45;;;3.70;;
67776;SDS011;54576;52.020;5.536;2023-09-07T03:54:50;4.15;;;2.70;;
67776;SDS011;54576;52.020;5.536;2023-09-07T03:57:18;5.38;;;3.05;;
67776;SDS011;54576;52.020;5.536;2023-09-07T03:59:44;2.90;;;2.70;;
67776;SDS011;54576;52.020;5.536;2023-09-07T04:02:10;4.82;;;2.45;;
67776;SDS011;54576;52.020;5.536;2023-09-07T04:04:37;5.57;;;2.53;;
67776;SDS011;54576;52.020;5.536;2023-09-07T04:07:03;2.75;;;2.50;;
67776;SDS011;54576;52.020;5.536;2023-09-07T04:09:29;3.47;;;2.55;;
67776;SDS011;54576;52.020;5.536;2023-09-07T04:11:54;7.30;;;2.53;;
67776;SDS011;54576;52.020;5.536;2023-09-07T04:14:20;4.30;;;2.65;;
67776;SDS011;54576;52.020;5.536;2023-09-07T04:16:46;6.82;;;2.47;;
67776;SDS011;54576;52.020;5.536;2023-09-07T04:19:11;2.80;;;2.63;;
67776;SDS011;54576;52.020;5.536;2023-09-07T04:21:37;5.47;;;2.80;;
67776;SDS011;54576;52.020;5.536;2023-09-07T04:24:03;3.17;;;2.83;;
67776;SDS011;54576;52.020;5.536;2023-09-07T04:26:29;3.85;;;3.00;;
67776;SDS011;54576;52.020;5.536;2023-09-07T04:28:55;5.07;;;2.60;;
67776;SDS011;54576;52.020;5.536;2023-09-07T04:31:21;3.17;;;2.85;;
67776;SDS011;54576;52.020;5.536;2023-09-07T04:33:49;3.00;;;2.63;;
67776;SDS011;54576;52.020;5.536;2023-09-07T04:36:15;17.63;;;3.58;;
67776;SDS011;54576;52.020;5.536;2023-09-07T04:38:41;5.40;;;3.47;;
67776;SDS011;54576;52.020;5.536;2023-09-07T04:41:10;7.10;;;2.85;;
67776;SDS011;54576;52.020;5.536;2023-09-07T04:43:38;9.75;;;3.70;;
67776;SDS011;54576;52.020;5.536;2023-09-07T04:46:10;6.47;;;3.72;;
67776;SDS011;54576;52.020;5.536;2023-09-07T04:48:39;7.50;;;3.53;;
67776;SDS011;54576;52.020;5.536;2023-09-07T04:51:06;8.55;;;3.63;;
67776;SDS011;54576;52.020;5.536;2023-09-07T04:53:33;7.03;;;3.80;;
67776;SDS011;54576;52.020;5.536;2023-09-07T04:56:01;4.05;;;2.95;;
67776;SDS011;54576;52.020;5.536;2023-09-07T04:58:30;4.05;;;3.63;;
67776;SDS011;54576;52.020;5.536;2023-09-07T05:01:03;7.35;;;3.75;;
67776;SDS011;54576;52.020;5.536;2023-09-07T05:03:28;4.07;;;3.70;;
67776;SDS011;54576;52.020;5.536;2023-09-07T05:05:54;11.70;;;4.65;;
67776;SDS011;54576;52.020;5.536;2023-09-07T05:08:21;5.72;;;3.72;;
67776;SDS011;54576;52.020;5.536;2023-09-07T05:10:48;12.93;;;3.40;;
67776;SDS011;54576;52.020;5.536;2023-09-07T05:13:13;6.00;;;4.38;;
67776;SDS011;54576;52.020;5.536;2023-09-07T05:15:48;4.82;;;4.38;;
67776;SDS011;54576;52.020;5.536;2023-09-07T05:18:16;8.77;;;3.63;;
67776;SDS011;54576;52.020;5.536;2023-09-07T05:20:42;5.13;;;3.00;;
67776;SDS011;54576;52.020;5.536;2023-09-07T05:23:10;7.93;;;3.70;;
67776;SDS011;54576;52.020;5.536;2023-09-07T05:25:50;9.13;;;3.60;;
67776;SDS011;54576;52.020;5.536;2023-09-07T05:28:18;4.55;;;4.15;;
67776;SDS011;54576;52.020;5.536;2023-09-07T05:30:44;8.10;;;3.80;;
67776;SDS011;54576;52.020;5.536;2023-09-07T05:33:10;5.90;;;5.10;;
67776;SDS011;54576;52.020;5.536;2023-09-07T05:35:39;5.18;;;4.53;;
67776;SDS011;54576;52.020;5.536;2023-09-07T05:38:10;9.70;;;3.80;;
67776;SDS011;54576;52.020;5.536;2023-09-07T05:40:36;5.70;;;4.00;;
67776;SDS011;54576;52.020;5.536;2023-09-07T05:43:04;11.60;;;4.32;;
67776;SDS011;54576;52.020;5.536;2023-09-07T05:45:30;8.23;;;4.82;;
67776;SDS011;54576;52.020;5.536;2023-09-07T05:47:56;16.08;;;4.88;;
67776;SDS011;54576;52.020;5.536;2023-09-07T05:50:25;7.22;;;4.50;;
67776;SDS011;54576;52.020;5.536;2023-09-07T05:52:51;4.97;;;4.57;;
67776;SDS011;54576;52.020;5.536;2023-09-07T05:55:17;9.95;;;4.75;;
67776;SDS011;54576;52.020;5.536;2023-09-07T05:57:44;6.57;;;4.63;;
67776;SDS011;54576;52.020;5.536;2023-09-07T06:00:10;13.48;;;5.28;;
67776;SDS011;54576;52.020;5.536;2023-09-07T06:02:38;5.05;;;4.60;;
67776;SDS011;54576;52.020;5.536;2023-09-07T06:05:04;9.10;;;5.53;;
67776;SDS011;54576;52.020;5.536;2023-09-07T06:07:30;11.13;;;5.10;;
67776;SDS011;54576;52.020;5.536;2023-09-07T06:09:56;5.90;;;4.50;;
67776;SDS011;54576;52.020;5.536;2023-09-07T06:12:23;6.25;;;4.78;;
67776;SDS011;54576;52.020;5.536;2023-09-07T06:14:49;14.18;;;6.30;;
67776;SDS011;54576;52.020;5.536;2023-09-07T06:17:15;10.68;;;5.40;;
67776;SDS011;54576;52.020;5.536;2023-09-07T06:19:40;10.90;;;4.88;;
67776;SDS011;54576;52.020;5.536;2023-09-07T06:22:06;5.35;;;4.63;;
67776;SDS011;54576;52.020;5.536;2023-09-07T06:24:32;12.98;;;5.18;;
67776;SDS011;54576;52.020;5.536;2023-09-07T06:26:57;7.38;;;5.28;;
67776;SDS011;54576;52.020;5.536;2023-09-07T06:29:23;21.05;;;8.55;;
67776;SDS011;54576;52.020;5.536;2023-09-07T06:31:48;17.50;;;8.25;;
67776;SDS011;54576;52.020;5.536;2023-09-07T06:34:15;13.48;;;6.50;;
67776;SDS011;54576;52.020;5.536;2023-09-07T06:36:41;10.73;;;6.00;;
67776;SDS011;54576;52.020;5.536;2023-09-07T06:39:06;11.48;;;7.10;;
67776;SDS011;54576;52.020;5.536;2023-09-07T06:41:32;11.45;;;6.10;;
67776;SDS011;54576;52.020;5.536;2023-09-07T06:43:58;20.52;;;5.82;;
67776;SDS011;54576;52.020;5.536;2023-09-07T06:46:23;18.75;;;6.40;;
67776;SDS011;54576;52.020;5.536;2023-09-07T06:48:49;12.40;;;5.65;;
67776;SDS011;54576;52.020;5.536;2023-09-07T06:51:15;13.85;;;7.50;;
67776;SDS011;54576;52.020;5.536;2023-09-07T06:53:40;15.93;;;7.10;;
67776;SDS011;54576;52.020;5.536;2023-09-07T06:56:06;11.80;;;6.35;;
67776;SDS011;54576;52.020;5.536;2023-09-07T06:58:32;11.50;;;6.22;;
67776;SDS011;54576;52.020;5.536;2023-09-07T07:00:59;10.55;;;6.38;;
67776;SDS011;54576;52.020;5.536;2023-09-07T07:03:26;19.75;;;6.25;;
67776;SDS011;54576;52.020;5.536;2023-09-07T07:05:52;14.40;;;6.60;;
67776;SDS011;54576;52.020;5.536;2023-09-07T07:08:19;12.55;;;5.88;;
67776;SDS011;54576;52.020;5.536;2023-09-07T07:10:44;19.70;;;6.72;;
67776;SDS011;54576;52.020;5.536;2023-09-07T07:13:10;11.00;;;6.50;;
67776;SDS011;54576;52.020;5.536;2023-09-07T07:15:36;8.18;;;5.82;;
67776;SDS011;54576;52.020;5.536;2023-09-07T07:18:02;8.93;;;6.00;;
67776;SDS011;54576;52.020;5.536;2023-09-07T07:20:33;17.98;;;6.72;;
67776;SDS011;54576;52.020;5.536;2023-09-07T07:23:01;8.18;;;5.97;;
67776;SDS011;54576;52.020;5.536;2023-09-07T07:25:26;12.25;;;6.07;;
67776;SDS011;54576;52.020;5.536;2023-09-07T07:27:52;10.80;;;5.70;;
67776;SDS011;54576;52.020;5.536;2023-09-07T07:30:18;10.00;;;5.93;;
67776;SDS011;54576;52.020;5.536;2023-09-07T07:32:44;13.75;;;5.70;;
67776;SDS011;54576;52.020;5.536;2023-09-07T07:35:09;12.50;;;5.78;;
67776;SDS011;54576;52.020;5.536;2023-09-07T07:37:35;14.27;;;5.78;;
67776;SDS011;54576;52.020;5.536;2023-09-07T07:40:01;21.38;;;5.72;;
67776;SDS011;54576;52.020;5.536;2023-09-07T07:42:27;8.30;;;5.38;;
67776;SDS011;54576;52.020;5.536;2023-09-07T07:44:53;11.52;;;5.25;;
67776;SDS011;54576;52.020;5.536;2023-09-07T07:47:19;17.83;;;5.68;;
67776;SDS011;54576;52.020;5.536;2023-09-07T07:49:44;10.00;;;4.88;;
67776;SDS011;54576;52.020;5.536;2023-09-07T07:52:10;9.05;;;4.90;;
67776;SDS011;54576;52.020;5.536;2023-09-07T07:54:36;8.73;;;4.63;;
67776;SDS011;54576;52.020;5.536;2023-09-07T07:57:05;9.43;;;4.95;;
67776;SDS011;54576;52.020;5.536;2023-09-07T07:59:30;5.85;;;4.15;;
67776;SDS011;54576;52.020;5.536;2023-09-07T08:01:58;11.48;;;4.53;;
67776;SDS011;54576;52.020;5.536;2023-09-07T08:04:24;10.88;;;4.18;;
67776;SDS011;54576;52.020;5.536;2023-09-07T08:06:49;20.15;;;4.65;;
67776;SDS011;54576;52.020;5.536;2023-09-07T08:09:16;10.50;;;4.80;;
67776;SDS011;54576;52.020;5.536;2023-09-07T08:11:42;10.02;;;4.43;;
67776;SDS011;54576;52.020;5.536;2023-09-07T08:14:07;13.13;;;3.95;;
67776;SDS011;54576;52.020;5.536;2023-09-07T08:16:33;9.00;;;4.50;;
67776;SDS011;54576;52.020;5.536;2023-09-07T08:18:58;7.10;;;3.88;;
67776;SDS011;54576;52.020;5.536;2023-09-07T08:21:24;11.38;;;4.00;;
67776;SDS011;54576;52.020;5.536;2023-09-07T08:23:50;8.27;;;3.92;;
67776;SDS011;54576;52.020;5.536;2023-09-07T08:26:15;13.77;;;4.38;;
67776;SDS011;54576;52.020;5.536;2023-09-07T08:28:42;8.75;;;3.55;;
67776;SDS011;54576;52.020;5.536;2023-09-07T08:33:38;9.40;;;3.70;;
67776;SDS011;54576;52.020;5.536;2023-09-07T08:36:05;11.75;;;3.58;;
67776;SDS011;54576;52.020;5.536;2023-09-07T08:38:31;17.42;;;4.30;;
67776;SDS011;54576;52.020;5.536;2023-09-07T08:41:00;8.80;;;3.80;;
67776;SDS011;54576;52.020;5.536;2023-09-07T08:43:30;4.47;;;3.00;;
67776;SDS011;54576;52.020;5.536;2023-09-07T08:46:10;12.13;;;3.10;;
67776;SDS011;54576;52.020;5.536;2023-09-07T08:48:47;20.35;;;3.75;;
67776;SDS011;54576;52.020;5.536;2023-09-07T08:51:15;10.90;;;3.38;;
67776;SDS011;54576;52.020;5.536;2023-09-07T08:53:44;22.05;;;4.10;;
67776;SDS011;54576;52.020;5.536;2023-09-07T08:56:14;18.08;;;3.70;;
67776;SDS011;54576;52.020;5.536;2023-09-07T08:58:41;5.30;;;3.08;;
67776;SDS011;54576;52.020;5.536;2023-09-07T09:01:07;14.27;;;3.33;;
67776;SDS011;54576;52.020;5.536;2023-09-07T09:03:36;8.80;;;3.03;;
67776;SDS011;54576;52.020;5.536;2023-09-07T09:08:28;7.18;;;3.22;;
67776;SDS011;54576;52.020;5.536;2023-09-07T09:11:01;4.90;;;3.30;;
67776;SDS011;54576;52.020;5.536;2023-09-07T09:13:31;8.30;;;3.38;;
67776;SDS011;54576;52.020;5.536;2023-09-07T09:16:00;8.05;;;3.30;;
67776;SDS011;54576;52.020;5.536;2023-09-07T09:18:29;13.93;;;3.40;;
67776;SDS011;54576;52.020;5.536;2023-09-07T09:20:55;9.55;;;3.40;;
67776;SDS011;54576;52.020;5.536;2023-09-07T09:23:21;5.85;;;3.35;;
67776;SDS011;54576;52.020;5.536;2023-09-07T09:25:49;11.75;;;3.88;;
67776;SDS011;54576;52.020;5.536;2023-09-07T09:28:15;15.27;;;4.15;;
67776;SDS011;54576;52.020;5.536;2023-09-07T09:30:43;5.40;;;3.90;;
67776;SDS011;54576;52.020;5.536;2023-09-07T09:33:10;9.15;;;3.90;;
67776;SDS011;54576;52.020;5.536;2023-09-07T09:35:36;12.05;;;3.70;;
67776;SDS011;54576;52.020;5.536;2023-09-07T09:38:03;6.68;;;3.03;;
67776;SDS011;54576;52.020;5.536;2023-09-07T09:40:35;5.00;;;3.88;;
67776;SDS011;54576;52.020;5.536;2023-09-07T09:43:02;4.03;;;3.35;;
67776;SDS011;54576;52.020;5.536;2023-09-07T09:45:34;6.47;;;3.55;;
67776;SDS011;54576;52.020;5.536;2023-09-07T09:48:00;13.50;;;4.32;;
67776;SDS011;54576;52.020;5.536;2023-09-07T09:50:31;11.75;;;3.88;;
67776;SDS011;54576;52.020;5.536;2023-09-07T09:52:59;7.05;;;3.40;;
67776;SDS011;54576;52.020;5.536;2023-09-07T09:55:28;11.13;;;3.60;;
67776;SDS011;54576;52.020;5.536;2023-09-07T09:57:56;7.70;;;3.33;;
67776;SDS011;54576;52.020;5.536;2023-09-07T10:00:24;16.65;;;3.33;;
67776;SDS011;54576;52.020;5.536;2023-09-07T10:03:07;5.47;;;3.28;;
67776;SDS011;54576;52.020;5.536;2023-09-07T10:05:36;11.98;;;3.65;;
67776;SDS011;54576;52.020;5.536;2023-09-07T10:08:03;8.98;;;3.28;;
67776;SDS011;54576;52.020;5.536;2023-09-07T10:10:32;3.97;;;2.90;;
67776;SDS011;54576;52.020;5.536;2023-09-07T10:12:59;8.60;;;3.17;;
67776;SDS011;54576;52.020;5.536;2023-09-07T10:15:26;9.35;;;3.28;;
67776;SDS011;54576;52.020;5.536;2023-09-07T10:20:50;5.13;;;3.20;;
67776;SDS011;54576;52.020;5.536;2023-09-07T10:23:17;5.95;;;2.97;;
67776;SDS011;54576;52.020;5.536;2023-09-07T10:25:46;13.32;;;3.17;;
67776;SDS011;54576;52.020;5.536;2023-09-07T10:30:45;8.63;;;2.83;;
67776;SDS011;54576;52.020;5.536;2023-09-07T10:33:20;9.27;;;3.03;;
67776;SDS011;54576;52.020;5.536;2023-09-07T10:35:47;11.60;;;3.53;;
67776;SDS011;54576;52.020;5.536;2023-09-07T10:38:13;14.27;;;3.42;;
67776;SDS011;54576;52.020;5.536;2023-09-07T10:40:40;4.88;;;3.22;;
67776;SDS011;54576;52.020;5.536;2023-09-07T10:43:07;13.77;;;3.50;;
67776;SDS011;54576;52.020;5.536;2023-09-07T10:45:33;13.25;;;3.30;;
67776;SDS011;54576;52.020;5.536;2023-09-07T10:47:59;5.63;;;3.00;;
67776;SDS011;54576;52.020;5.536;2023-09-07T10:50:25;8.38;;;3.45;;
67776;SDS011;54576;52.020;5.536;2023-09-07T10:55:19;6.95;;;3.88;;
67776;SDS011;54576;52.020;5.536;2023-09-07T10:57:46;5.53;;;3.78;;
67776;SDS011;54576;52.020;5.536;2023-09-07T11:00:13;12.17;;;3.23;;
67776;SDS011;54576;52.020;5.536;2023-09-07T11:02:39;5.35;;;3.40;;
67776;SDS011;54576;52.020;5.536;2023-09-07T11:05:08;11.32;;;3.22;;
67776;SDS011;54576;52.020;5.536;2023-09-07T11:07:35;6.53;;;3.38;;
67776;SDS011;54576;52.020;5.536;2023-09-07T11:10:04;10.13;;;3.10;;
67776;SDS011;54576;52.020;5.536;2023-09-07T11:12:35;21.02;;;3.42;;
67776;SDS011;54576;52.020;5.536;2023-09-07T11:15:02;8.75;;;3.55;;
67776;SDS011;54576;52.020;5.536;2023-09-07T11:17:29;8.82;;;3.28;;
67776;SDS011;54576;52.020;5.536;2023-09-07T11:19:55;17.10;;;4.07;;
67776;SDS011;54576;52.020;5.536;2023-09-07T11:22:21;7.82;;;3.50;;
67776;SDS011;54576;52.020;5.536;2023-09-07T11:24:47;12.57;;;3.85;;
67776;SDS011;54576;52.020;5.536;2023-09-07T11:27:16;10.43;;;3.65;;
67776;SDS011;54576;52.020;5.536;2023-09-07T11:29:49;10.32;;;3.67;;
67776;SDS011;54576;52.020;5.536;2023-09-07T11:32:16;4.88;;;3.45;;
67776;SDS011;54576;52.020;5.536;2023-09-07T11:34:50;7.72;;;3.53;;
67776;SDS011;54576;52.020;5.536;2023-09-07T11:37:17;3.92;;;3.13;;
67776;SDS011;54576;52.020;5.536;2023-09-07T11:39:43;3.78;;;3.22;;
67776;SDS011;54576;52.020;5.536;2023-09-07T11:42:09;7.15;;;3.65;;
67776;SDS011;54576;52.020;5.536;2023-09-07T11:44:35;5.53;;;3.25;;
67776;SDS011;54576;52.020;5.536;2023-09-07T11:47:01;3.92;;;3.20;;
67776;SDS011;54576;52.020;5.536;2023-09-07T11:49:28;17.15;;;3.40;;
67776;SDS011;54576;52.020;5.536;2023-09-07T11:51:56;10.95;;;2.92;;
67776;SDS011;54576;52.020;5.536;2023-09-07T11:54:25;7.68;;;3.03;;
67776;SDS011;54576;52.020;5.536;2023-09-07T11:56:52;5.55;;;3.13;;
67776;SDS011;54576;52.020;5.536;2023-09-07T11:59:18;8.15;;;3.00;;
67776;SDS011;54576;52.020;5.536;2023-09-07T12:01:44;12.15;;;3.65;;
67776;SDS011;54576;52.020;5.536;2023-09-07T12:04:10;4.03;;;2.70;;
67776;SDS011;54576;52.020;5.536;2023-09-07T12:06:36;5.55;;;3.30;;
67776;SDS011;54576;52.020;5.536;2023-09-07T12:09:03;5.72;;;2.85;;
67776;SDS011;54576;52.020;5.536;2023-09-07T12:11:32;9.88;;;2.88;;
67776;SDS011;54576;52.020;5.536;2023-09-07T12:13:59;7.03;;;2.83;;
67776;SDS011;54576;52.020;5.536;2023-09-07T12:16:25;11.55;;;2.80;;
67776;SDS011;54576;52.020;5.536;2023-09-07T12:18:52;7.38;;;2.72;;
67776;SDS011;54576;52.020;5.536;2023-09-07T12:21:18;5.72;;;3.03;;
67776;SDS011;54576;52.020;5.536;2023-09-07T12:23:44;7.47;;;3.30;;
67776;SDS011;54576;52.020;5.536;2023-09-07T12:26:11;15.07;;;3.70;;
67776;SDS011;54576;52.020;5.536;2023-09-07T12:28:37;5.40;;;2.95;;
67776;SDS011;54576;52.020;5.536;2023-09-07T12:31:03;8.40;;;3.20;;
67776;SDS011;54576;52.020;5.536;2023-09-07T12:33:30;10.25;;;3.38;;
67776;SDS011;54576;52.020;5.536;2023-09-07T12:35:57;7.75;;;3.15;;
67776;SDS011;54576;52.020;5.536;2023-09-07T12:38:23;4.55;;;3.00;;
67776;SDS011;54576;52.020;5.536;2023-09-07T12:40:53;7.50;;;3.00;;
67776;SDS011;54576;52.020;5.536;2023-09-07T12:43:19;5.30;;;2.65;;
67776;SDS011;54576;52.020;5.536;2023-09-07T12:45:45;16.95;;;3.15;;
67776;SDS011;54576;52.020;5.536;2023-09-07T12:48:14;7.78;;;2.88;;
67776;SDS011;54576;52.020;5.536;2023-09-07T12:50:40;8.73;;;2.90;;
67776;SDS011;54576;52.020;5.536;2023-09-07T12:53:08;13.02;;;3.33;;
67776;SDS011;54576;52.020;5.536;2023-09-07T12:55:34;8.05;;;3.00;;
67776;SDS011;54576;52.020;5.536;2023-09-07T12:58:00;8.75;;;3.22;;
67776;SDS011;54576;52.020;5.536;2023-09-07T13:00:26;7.25;;;3.03;;
67776;SDS011;54576;52.020;5.536;2023-09-07T13:02:53;5.93;;;2.92;;
67776;SDS011;54576;52.020;5.536;2023-09-07T13:05:21;13.55;;;3.20;;
67776;SDS011;54576;52.020;5.536;2023-09-07T13:07:47;10.10;;;3.15;;
67776;SDS011;54576;52.020;5.536;2023-09-07T13:10:13;6.75;;;3.65;;
67776;SDS011;54576;52.020;5.536;2023-09-07T13:12:39;5.20;;;3.17;;
67776;SDS011;54576;52.020;5.536;2023-09-07T13:15:05;3.88;;;3.08;;
67776;SDS011;54576;52.020;5.536;2023-09-07T13:17:32;7.28;;;3.60;;
67776;SDS011;54576;52.020;5.536;2023-09-07T13:19:58;8.10;;;2.88;;
67776;SDS011;54576;52.020;5.536;2023-09-07T13:22:24;6.10;;;2.97;;
67776;SDS011;54576;52.020;5.536;2023-09-07T13:24:50;8.35;;;3.15;;
67776;SDS011;54576;52.020;5.536;2023-09-07T13:27:16;14.00;;;2.92;;
67776;SDS011;54576;52.020;5.536;2023-09-07T13:29:42;8.07;;;3.20;;
67776;SDS011;54576;52.020;5.536;2023-09-07T13:32:07;10.35;;;2.92;;
67776;SDS011;54576;52.020;5.536;2023-09-07T13:34:33;4.55;;;3.03;;
67776;SDS011;54576;52.020;5.536;2023-09-07T13:36:59;4.50;;;2.80;;
67776;SDS011;54576;52.020;5.536;2023-09-07T13:39:25;4.82;;;3.33;;
67776;SDS011;54576;52.020;5.536;2023-09-07T13:41:51;8.00;;;3.00;;
67776;SDS011;54576;52.020;5.536;2023-09-07T13:44:17;10.75;;;3.10;;
67776;SDS011;54576;52.020;5.536;2023-09-07T13:46:44;6.28;;;3.33;;
67776;SDS011;54576;52.020;5.536;2023-09-07T13:49:10;4.03;;;2.95;;
67776;SDS011;54576;52.020;5.536;2023-09-07T13:51:37;7.30;;;2.97;;
67776;SDS011;54576;52.020;5.536;2023-09-07T13:54:05;3.83;;;2.92;;
67776;SDS011;54576;52.020;5.536;2023-09-07T13:56:31;9.80;;;3.58;;
67776;SDS011;54576;52.020;5.536;2023-09-07T13:58:58;6.90;;;2.92;;
67776;SDS011;54576;52.020;5.536;2023-09-07T14:01:24;11.55;;;3.30;;
67776;SDS011;54576;52.020;5.536;2023-09-07T14:03:50;7.10;;;3.65;;
67776;SDS011;54576;52.020;5.536;2023-09-07T14:06:16;12.48;;;3.30;;
67776;SDS011;54576;52.020;5.536;2023-09-07T14:08:43;7.63;;;3.33;;
67776;SDS011;54576;52.020;5.536;2023-09-07T14:11:11;5.47;;;3.42;;
67776;SDS011;54576;52.020;5.536;2023-09-07T14:13:37;5.57;;;3.42;;
67776;SDS011;54576;52.020;5.536;2023-09-07T14:16:03;6.43;;;3.20;;
67776;SDS011;54576;52.020;5.536;2023-09-07T14:18:29;6.95;;;3.45;;
67776;SDS011;54576;52.020;5.536;2023-09-07T14:20:55;12.18;;;3.70;;
67776;SDS011;54576;52.020;5.536;2023-09-07T14:23:23;8.77;;;3.28;;
67776;SDS011;54576;52.020;5.536;2023-09-07T14:25:51;4.65;;;3.28;;
67776;SDS011;54576;52.020;5.536;2023-09-07T14:28:17;5.72;;;3.45;;
67776;SDS011;54576;52.020;5.536;2023-09-07T14:30:42;8.93;;;3.38;;
67776;SDS011;54576;52.020;5.536;2023-09-07T14:33:08;10.27;;;3.63;;
67776;SDS011;54576;52.020;5.536;2023-09-07T14:35:34;4.20;;;3.35;;
67776;SDS011;54576;52.020;5.536;2023-09-07T14:37:59;10.93;;;4.05;;
67776;SDS011;54576;52.020;5.536;2023-09-07T14:40:26;10.88;;;3.90;;
67776;SDS011;54576;52.020;5.536;2023-09-07T14:42:52;5.30;;;3.97;;
67776;SDS011;54576;52.020;5.536;2023-09-07T14:45:18;13.43;;;4.38;;
67776;SDS011;54576;52.020;5.536;2023-09-07T14:47:44;10.20;;;3.97;;
67776;SDS011;54576;52.020;5.536;2023-09-07T14:50:10;12.98;;;3.70;;
67776;SDS011;54576;52.020;5.536;2023-09-07T14:52:36;8.85;;;3.40;;
67776;SDS011;54576;52.020;5.536;2023-09-07T14:55:06;9.75;;;4.40;;